Time;durP1;ratioP1;P1;durP2;ratioP2;P2;SDS_P1;SDS_P2;PMS_P1;PMS_P2;Temp;Humidity;BMP_temperature;BMP_pressure;BME280_temperature;BME280_humidity;BME280_pressure;Samples;Min_cycle;Max_cycle;Signal;HPM_P1;HPM_P2
2021/01/04 00:01:04;;;;;;;12.00;10.43;;;2.00;1.00;;;;;;4921675;28;20293;-85
2021/01/04 00:03:59;;;;;;;11.35;10.15;;;2.00;1.00;;;;;;4938083;28;20301;-84
2021/01/04 00:06:51;;;;;;;13.95;11.07;;;1.90;1.00;;;;;;4937279;28;20233;-81
2021/01/04 00:09:27;;;;;;;12.48;10.35;;;1.90;1.00;;;;;;4949956;28;20257;-87
2021/01/04 00:12:01;;;;;;;10.70;9.00;;;1.90;1.00;;;;;;4956782;28;20288;-87
2021/01/04 00:14:55;;;;;;;12.20;9.70;;;1.90;1.00;;;;;;4954767;28;20218;-86
2021/01/04 00:17:36;;;;;;;10.43;8.77;;;1.90;1.00;;;;;;4955903;28;20289;-87
2021/01/04 00:20:15;;;;;;;11.88;9.70;;;2.00;1.00;;;;;;4960514;28;20213;-87
2021/01/04 00:22:54;;;;;;;10.88;8.63;;;2.00;1.00;;;;;;4946142;28;20823;-83
2021/01/04 00:25:27;;;;;;;10.43;9.02;;;1.90;1.00;;;;;;4943486;29;20324;-83
2021/01/04 00:27:58;;;;;;;11.43;10.23;;;1.90;1.00;;;;;;4939675;28;20238;-85
2021/01/04 00:30:28;;;;;;;10.60;8.80;;;1.90;1.00;;;;;;4941772;29;20226;-82
2021/01/04 00:32:57;;;;;;;11.60;9.45;;;1.90;1.00;;;;;;4940968;28;20239;-83
2021/01/04 00:35:26;;;;;;;11.50;9.77;;;2.00;1.00;;;;;;4938772;29;20237;-85
2021/01/04 00:38:37;;;;;;;10.68;9.57;;;2.00;1.00;;;;;;4940195;28;20295;-82
2021/01/04 00:41:20;;;;;;;10.35;8.85;;;2.00;1.00;;;;;;4939942;29;20226;-83
2021/01/04 00:43:49;;;;;;;9.77;8.75;;;2.00;1.00;;;;;;4940321;28;20221;-84
2021/01/04 00:46:21;;;;;;;11.77;9.43;;;2.00;1.00;;;;;;4943102;28;20221;-83
2021/01/04 00:48:59;;;;;;;11.27;9.30;;;2.00;1.00;;;;;;4951098;28;20218;-84
2021/01/04 00:51:37;;;;;;;12.48;10.30;;;2.00;1.00;;;;;;4951319;28;20233;-85
2021/01/04 00:54:19;;;;;;;13.02;9.23;;;1.90;1.00;;;;;;4947379;29;20233;-82
2021/01/04 00:56:57;;;;;;;11.07;8.70;;;2.00;1.00;;;;;;4938193;28;20343;-85
2021/01/04 00:59:33;;;;;;;12.15;8.98;;;2.00;1.00;;;;;;4938690;29;20351;-83
2021/01/04 01:02:11;;;;;;;10.55;9.48;;;2.00;1.00;;;;;;4940670;29;20230;-85
2021/01/04 01:04:44;;;;;;;10.70;8.80;;;2.00;1.00;;;;;;4938963;28;20244;-83
2021/01/04 01:07:24;;;;;;;10.88;9.35;;;2.00;1.00;;;;;;4938388;28;20243;-83
2021/01/04 01:09:54;;;;;;;9.43;8.25;;;2.00;1.00;;;;;;4940914;29;20229;-83
2021/01/04 01:12:28;;;;;;;11.05;9.45;;;2.00;1.00;;;;;;4941112;28;20232;-84
2021/01/04 01:15:19;;;;;;;11.27;9.32;;;2.00;1.00;;;;;;4940749;29;20225;-84
2021/01/04 01:18:04;;;;;;;10.18;9.10;;;2.10;1.00;;;;;;4940826;28;20281;-86
2021/01/04 01:20:33;;;;;;;10.43;9.32;;;2.00;1.00;;;;;;4937807;28;20285;-82
2021/01/04 01:23:00;;;;;;;11.50;9.35;;;2.00;1.00;;;;;;4939842;28;20236;-84
2021/01/04 01:25:31;;;;;;;11.10;9.73;;;2.00;1.00;;;;;;4937662;28;20238;-85
2021/01/04 01:28:36;;;;;;;12.48;8.88;;;2.00;1.00;;;;;;4940603;28;20225;-85
2021/01/04 01:31:32;;;;;;;10.52;8.55;;;2.00;1.00;;;;;;4940342;28;20234;-84
2021/01/04 01:34:18;;;;;;;9.45;8.40;;;2.00;1.00;;;;;;4916722;28;20289;-84
2021/01/04 01:37:21;;;;;;;11.45;8.95;;;2.00;1.00;;;;;;4939863;28;20321;-84
2021/01/04 01:40:17;;;;;;;9.88;8.90;;;2.00;1.00;;;;;;4933058;28;20273;-85
2021/01/04 01:43:21;;;;;;;9.20;8.27;;;2.00;1.00;;;;;;4941135;29;20232;-84
2021/01/04 01:46:40;;;;;;;9.63;8.25;;;2.00;1.00;;;;;;4940536;28;20249;-84
2021/01/04 01:49:20;;;;;;;10.95;8.82;;;2.00;1.00;;;;;;4945984;29;20236;-83
2021/01/04 01:52:07;;;;;;;8.50;7.50;;;2.00;1.00;;;;;;4944672;28;20232;-86
2021/01/04 01:54:51;;;;;;;9.15;8.20;;;1.90;1.00;;;;;;4958439;28;20338;-84
2021/01/04 02:00:28;;;;;;;9.00;8.15;;;1.90;1.00;;;;;;4957219;28;20217;-87
2021/01/04 02:03:06;;;;;;;12.32;11.25;;;2.00;1.00;;;;;;4954929;28;20230;-84
2021/01/04 02:05:58;;;;;;;9.02;8.15;;;1.90;1.00;;;;;;4943596;28;20241;-83
2021/01/04 02:08:29;;;;;;;9.15;8.02;;;1.90;1.00;;;;;;4935606;29;20237;-84
2021/01/04 02:11:03;;;;;;;8.52;7.72;;;2.00;1.00;;;;;;4937529;28;20241;-84
2021/01/04 02:13:56;;;;;;;8.13;7.32;;;2.00;1.00;;;;;;4942334;28;20265;-85
2021/01/04 02:16:43;;;;;;;9.43;7.68;;;2.00;1.00;;;;;;4934656;29;20249;-82
2021/01/04 02:19:39;;;;;;;;;;;;;;;;;;;;;
2021/01/04 02:23:00;;;;;;;10.50;8.55;;;2.00;1.00;;;;;;4937824;29;20277;-83
2021/01/04 02:25:55;;;;;;;9.13;7.20;;;2.00;1.00;;;;;;4934412;28;20234;-84
2021/01/04 02:28:43;;;;;;;9.93;7.60;;;2.00;1.00;;;;;;4942528;28;20233;-83
2021/01/04 02:31:28;;;;;;;9.05;8.15;;;2.10;1.00;;;;;;4937430;29;20224;-84
2021/01/04 02:34:09;;;;;;;7.68;6.88;;;2.10;1.00;;;;;;4941943;28;20229;-81
2021/01/04 02:36:59;;;;;;;7.55;6.75;;;2.10;1.00;;;;;;4939184;28;20715;-84
2021/01/04 02:40:06;;;;;;;8.93;6.75;;;2.00;1.00;;;;;;4933494;28;20244;-82
2021/01/04 02:45:36;;;;;;;7.30;6.35;;;2.00;1.00;;;;;;4931829;28;20225;-86
2021/01/04 02:48:22;;;;;;;7.18;6.55;;;2.00;1.00;;;;;;4955706;28;20221;-85
2021/01/04 02:51:00;;;;;;;6.93;6.22;;;2.00;1.00;;;;;;4952448;29;20226;-86
2021/01/04 02:54:00;;;;;;;7.07;6.38;;;2.10;1.00;;;;;;4946783;28;20236;-83
2021/01/04 02:56:40;;;;;;;6.88;6.25;;;2.10;1.00;;;;;;4933140;29;20234;-82
2021/01/04 02:59:31;;;;;;;7.88;6.50;;;2.00;1.00;;;;;;4930251;28;20229;-84
2021/01/04 03:05:44;;;;;;;7.72;6.93;;;2.00;1.00;;;;;;4872144;29;20249;-84
2021/01/04 03:08:36;;;;;;;6.57;5.60;;;1.90;1.00;;;;;;4930774;28;20240;-84
2021/01/04 03:11:20;;;;;;;7.15;6.47;;;2.00;1.00;;;;;;4934347;29;20300;-85
2021/01/04 03:17:13;;;;;;;7.55;6.15;;;2.00;1.00;;;;;;4935231;28;20241;-85
2021/01/04 03:20:07;;;;;;;7.65;6.75;;;2.00;1.00;;;;;;4940426;28;20284;-86
2021/01/04 03:22:49;;;;;;;6.68;5.90;;;1.90;1.00;;;;;;4944327;28;20221;-82
2021/01/04 03:25:28;;;;;;;7.30;6.25;;;2.00;1.00;;;;;;4938876;28;20238;-83
2021/01/04 03:28:27;;;;;;;7.70;6.45;;;2.00;1.00;;;;;;4936579;28;20316;-84
2021/01/04 03:31:03;;;;;;;7.32;6.63;;;2.00;1.00;;;;;;4917474;29;20233;-84
2021/01/04 03:33:31;;;;;;;6.63;6.00;;;2.10;1.00;;;;;;4934930;28;20913;-83
2021/01/04 03:35:57;;;;;;;8.88;7.00;;;2.00;1.00;;;;;;4938442;29;20337;-85
2021/01/04 03:41:13;;;;;;;6.20;5.60;;;2.00;1.00;;;;;;4934316;28;20234;-84
2021/01/04 03:43:41;;;;;;;7.03;5.97;;;2.00;1.00;;;;;;4933385;29;20775;-82
2021/01/04 03:46:08;;;;;;;6.95;6.10;;;2.00;1.00;;;;;;4936765;28;20297;-84
2021/01/04 03:48:37;;;;;;;8.77;7.72;;;2.00;1.00;;;;;;4931954;29;20246;-82
2021/01/04 03:54:12;;;;;;;7.60;6.80;;;2.00;1.00;;;;;;4938465;29;20221;-82
2021/01/04 03:56:54;;;;;;;7.28;6.55;;;2.00;1.00;;;;;;4937197;28;20756;-82
2021/01/04 03:59:50;;;;;;;7.20;6.00;;;2.00;1.00;;;;;;4933719;29;20293;-82
2021/01/04 04:02:41;;;;;;;7.18;6.47;;;2.00;1.00;;;;;;4937599;28;20276;-83
2021/01/04 04:05:15;;;;;;;6.55;5.90;;;2.00;1.00;;;;;;4936784;28;20292;-82
2021/01/04 04:07:59;;;;;;;8.23;7.43;;;2.00;1.00;;;;;;4938487;29;20259;-83
2021/01/04 04:10:47;;;;;;;7.07;6.40;;;1.90;1.00;;;;;;4938832;28;20301;-85
2021/01/04 04:13:49;;;;;;;6.22;5.68;;;1.90;1.00;;;;;;4941044;28;20236;-86
2021/01/04 04:19:19;;;;;;;7.20;5.90;;;2.10;1.00;;;;;;4930751;28;21557;-84
2021/01/04 04:22:04;;;;;;;8.23;6.00;;;2.10;1.00;;;;;;4941499;28;20367;-84
2021/01/04 04:24:58;;;;;;;7.65;6.43;;;2.10;1.00;;;;;;4938087;28;20630;-86
2021/01/04 04:27:39;;;;;;;8.45;7.10;;;2.10;1.00;;;;;;4943020;28;20233;-83
2021/01/04 04:30:08;;;;;;;6.40;5.80;;;2.00;1.00;;;;;;4940065;28;20289;-86
2021/01/04 04:32:35;;;;;;;7.50;5.90;;;2.10;1.00;;;;;;4946694;29;20240;-85
2021/01/04 04:35:04;;;;;;;6.57;5.93;;;2.10;1.00;;;;;;4946605;28;20226;-86
2021/01/04 04:37:34;;;;;;;9.75;6.55;;;2.00;1.00;;;;;;4944166;28;20313;-84
2021/01/04 04:40:07;;;;;;;6.80;6.00;;;2.00;1.00;;;;;;4934495;28;20229;-84
2021/01/04 04:42:37;;;;;;;7.10;6.22;;;2.00;1.00;;;;;;4937542;29;20269;-83
2021/01/04 04:45:18;;;;;;;10.90;8.65;;;2.00;1.00;;;;;;4934079;28;20241;-83
2021/01/04 04:48:00;;;;;;;6.40;5.80;;;2.00;1.00;;;;;;4953539;28;20237;-86
2021/01/04 04:50:49;;;;;;;7.03;5.30;;;2.00;1.00;;;;;;4936344;28;20321;-84
2021/01/04 04:53:48;;;;;;;10.15;7.72;;;2.00;1.00;;;;;;4956054;28;20225;-86
2021/01/04 04:59:45;;;;;;;7.72;7.03;;;2.00;1.00;;;;;;4927726;28;20313;-84
2021/01/04 05:02:18;;;;;;;9.45;5.72;;;2.00;1.00;;;;;;4955150;28;20241;-86
2021/01/04 05:05:09;;;;;;;6.45;5.53;;;1.90;1.00;;;;;;4942227;28;20267;-84
2021/01/04 05:08:18;;;;;;;10.52;7.80;;;2.00;1.00;;;;;;4943682;28;20236;-85
2021/01/04 05:11:28;;;;;;;7.35;6.05;;;2.00;1.00;;;;;;4937853;29;20230;-84
2021/01/04 05:14:10;;;;;;;7.05;6.35;;;1.90;1.00;;;;;;4937707;28;20256;-88
2021/01/04 05:17:19;;;;;;;;;;;;;;;;;;;;;
2021/01/04 05:20:11;;;;;;;7.82;6.07;;;1.90;1.00;;;;;;4932120;28;21142;-85
2021/01/04 05:23:17;;;;;;;6.97;5.70;;;1.90;1.00;;;;;;4939473;28;20277;-83
2021/01/04 05:29:39;;;;;;;7.63;6.85;;;1.90;1.00;;;;;;4932533;29;20293;-84
2021/01/04 05:32:32;;;;;;;9.27;5.80;;;1.80;1.00;;;;;;4945266;28;20218;-84
2021/01/04 05:35:03;;;;;;;7.80;6.30;;;1.80;1.00;;;;;;4940827;28;20328;-85
2021/01/04 05:37:42;;;;;;;6.60;5.65;;;1.80;1.00;;;;;;4940757;28;20226;-84
2021/01/04 05:40:48;;;;;;;6.53;5.80;;;1.80;1.00;;;;;;4941258;29;20705;-83
2021/01/04 05:43:26;;;;;;;11.05;7.32;;;1.80;1.00;;;;;;4849762;29;21489;-84
2021/01/04 05:45:58;;;;;;;6.75;5.93;;;1.80;1.00;;;;;;4934719;28;20274;-85
2021/01/04 05:48:49;;;;;;;8.85;6.50;;;1.90;1.00;;;;;;4936835;29;20229;-81
2021/01/04 05:52:12;;;;;;;9.57;6.82;;;1.80;1.00;;;;;;4880522;29;20227;-83
2021/01/04 05:54:43;;;;;;;7.55;6.43;;;1.80;1.00;;;;;;4900089;29;20317;-83
2021/01/04 05:57:48;;;;;;;6.57;5.55;;;1.80;1.00;;;;;;4935536;28;20221;-84
2021/01/04 06:00:36;;;;;;;7.00;6.30;;;1.80;1.00;;;;;;4935162;28;20301;-84
2021/01/04 06:03:28;;;;;;;6.80;5.60;;;1.80;1.00;;;;;;4937040;28;20213;-84
2021/01/04 06:05:55;;;;;;;8.77;6.65;;;1.80;1.00;;;;;;4940854;28;20261;-82
2021/01/04 06:08:23;;;;;;;9.45;6.45;;;1.80;1.00;;;;;;4944169;28;20237;-83
2021/01/04 06:10:53;;;;;;;6.72;5.53;;;1.90;1.00;;;;;;4951641;28;20232;-83
2021/01/04 06:13:21;;;;;;;8.63;6.40;;;1.90;1.00;;;;;;4958010;28;20205;-85
2021/01/04 06:21:20;;;;;;;7.45;6.50;;;1.80;1.00;;;;;;4918335;29;20297;-81
2021/01/04 06:23:47;;;;;;;8.30;6.82;;;1.80;1.00;;;;;;4920620;29;20282;-81
2021/01/04 06:26:21;;;;;;;7.97;7.13;;;1.70;1.00;;;;;;4914115;29;20320;-82
2021/01/04 06:28:53;;;;;;;8.95;7.03;;;1.70;1.00;;;;;;4918844;29;20246;-82
2021/01/04 06:31:28;;;;;;;8.13;6.53;;;1.70;1.00;;;;;;4913287;29;20308;-82
2021/01/04 06:33:57;;;;;;;7.70;6.85;;;1.70;1.00;;;;;;4919472;29;20749;-80
2021/01/04 06:36:25;;;;;;;7.55;6.38;;;1.70;1.00;;;;;;4921008;29;20233;-83
2021/01/04 06:38:52;;;;;;;9.65;7.78;;;1.60;1.00;;;;;;4916235;29;20227;-83
2021/01/04 06:41:28;;;;;;;8.52;7.32;;;1.60;1.00;;;;;;4919507;29;20234;-83
2021/01/04 06:43:55;;;;;;;11.25;8.27;;;1.60;1.00;;;;;;4919210;29;20245;-84
2021/01/04 06:46:33;;;;;;;8.55;7.07;;;1.70;1.00;;;;;;4920297;29;20957;-82
2021/01/04 06:49:05;;;;;;;11.48;7.95;;;1.70;1.00;;;;;;4927788;28;20251;-82
2021/01/04 06:52:07;;;;;;;7.90;7.10;;;1.70;1.00;;;;;;4933133;29;20246;-82
2021/01/04 06:55:16;;;;;;;8.55;6.85;;;1.70;1.00;;;;;;4900221;29;20233;-82
2021/01/04 06:58:18;;;;;;;9.55;7.85;;;1.80;1.00;;;;;;4919823;29;20230;-85
2021/01/04 07:01:03;;;;;;;8.32;7.53;;;1.90;1.00;;;;;;4885900;29;20230;-83
2021/01/04 07:04:05;;;;;;;7.15;6.47;;;1.80;1.00;;;;;;4918717;29;20246;-84
2021/01/04 07:07:01;;;;;;;9.27;7.40;;;1.90;1.00;;;;;;4917840;29;20321;-83
2021/01/04 07:09:57;;;;;;;9.70;6.55;;;1.90;1.00;;;;;;4911978;29;20378;-82
2021/01/04 07:12:36;;;;;;;8.35;7.45;;;1.90;1.00;;;;;;4905691;29;20300;-82
2021/01/04 07:15:15;;;;;;;8.18;7.15;;;1.90;1.00;;;;;;4917796;29;20230;-83
2021/01/04 07:18:31;;;;;;;8.65;7.85;;;1.90;1.00;;;;;;4916724;29;20230;-83
2021/01/04 07:21:28;;;;;;;8.57;7.70;;;1.90;1.00;;;;;;4917054;29;20237;-84
2021/01/04 07:24:24;;;;;;;8.85;6.88;;;1.90;1.00;;;;;;4918746;29;20307;-82
2021/01/04 07:27:06;;;;;;;8.15;7.35;;;1.90;1.00;;;;;;4913683;29;20229;-85
2021/01/04 07:29:53;;;;;;;8.70;7.70;;;1.90;1.00;;;;;;4925686;29;20262;-85
2021/01/04 07:32:24;;;;;;;8.35;7.22;;;1.90;1.00;;;;;;4925156;29;20862;-84
2021/01/04 07:34:55;;;;;;;10.25;7.32;;;1.90;1.00;;;;;;4938860;29;20227;-84
2021/01/04 07:37:38;;;;;;;8.52;7.72;;;1.90;1.00;;;;;;4918531;29;20276;-82
2021/01/04 07:40:25;;;;;;;9.18;7.45;;;1.90;1.00;;;;;;4915393;29;20257;-83
2021/01/04 07:43:31;;;;;;;7.55;6.57;;;1.90;1.00;;;;;;4918240;29;20230;-82
2021/01/04 07:46:28;;;;;;;8.63;7.10;;;1.90;1.00;;;;;;4900423;29;20238;-82
2021/01/04 07:49:44;;;;;;;7.43;6.57;;;1.90;1.00;;;;;;4928270;29;20222;-82
2021/01/04 07:52:38;;;;;;;8.40;6.60;;;1.90;1.00;;;;;;4934587;29;20248;-83
2021/01/04 07:55:32;;;;;;;8.55;7.20;;;2.00;1.00;;;;;;4934533;29;20234;-84
2021/01/04 07:58:25;;;;;;;8.48;6.45;;;2.00;1.00;;;;;;4917704;29;20245;-84
2021/01/04 08:01:20;;;;;;;9.20;7.40;;;2.00;1.00;;;;;;4912094;29;20227;-84
2021/01/04 08:07:47;;;;;;;9.68;7.68;;;1.90;1.00;;;;;;4915287;29;20639;-83
2021/01/04 08:10:49;;;;;;;8.30;6.63;;;1.90;1.00;;;;;;4916826;29;20230;-82
2021/01/04 08:18:01;;;;;;;8.02;6.78;;;1.90;1.00;;;;;;4880850;29;20242;-82
2021/01/04 08:36:15;;;;;;;10.43;8.52;;;1.90;1.00;;;;;;4918787;29;20713;-84
2021/01/04 08:47:57;;;;;;;12.35;8.60;;;1.90;1.00;;;;;;4848938;29;21138;-84
2021/01/04 08:50:36;;;;;;;11.30;7.93;;;1.90;1.00;;;;;;4844523;29;20320;-84
2021/01/04 08:53:16;;;;;;;10.55;9.35;;;2.00;1.00;;;;;;4922318;29;20285;-83
2021/01/04 08:55:43;;;;;;;16.73;10.48;;;2.00;1.00;;;;;;4918881;29;20831;-83
2021/01/04 08:58:34;;;;;;;11.82;9.65;;;2.00;1.00;;;;;;4924214;29;20230;-84
2021/01/04 09:01:05;;;;;;;11.00;9.82;;;2.00;1.00;;;;;;4921519;29;20237;-85
2021/01/04 09:03:34;;;;;;;13.32;10.25;;;2.00;1.00;;;;;;4928434;29;20220;-83
2021/01/04 09:06:12;;;;;;;10.43;9.43;;;2.00;1.00;;;;;;4922128;29;20230;-82
2021/01/04 09:08:48;;;;;;;15.32;10.80;;;2.00;1.00;;;;;;4920689;29;20238;-82
2021/01/04 09:11:16;;;;;;;13.20;10.98;;;1.90;1.00;;;;;;4922684;29;20234;-81
2021/01/04 09:13:44;;;;;;;12.85;10.68;;;2.00;1.00;;;;;;4923891;29;20226;-82
2021/01/04 09:16:17;;;;;;;16.85;10.80;;;2.00;1.00;;;;;;4919714;29;20242;-82
2021/01/04 09:18:48;;;;;;;16.48;11.75;;;2.00;1.00;;;;;;4917995;29;20962;-82
2021/01/04 09:21:33;;;;;;;15.05;10.80;;;2.00;1.00;;;;;;4920367;29;20226;-84
2021/01/04 09:24:16;;;;;;;13.48;10.55;;;2.00;1.00;;;;;;4919248;29;20226;-81
2021/01/04 09:26:44;;;;;;;18.02;13.50;;;2.00;1.00;;;;;;4920039;29;20674;-82
2021/01/04 09:29:20;;;;;;;15.45;11.88;;;2.10;1.00;;;;;;4916967;29;20245;-81
2021/01/04 09:31:54;;;;;;;14.23;12.13;;;2.10;1.00;;;;;;4923041;29;20313;-85
2021/01/04 09:34:39;;;;;;;14.75;11.32;;;2.10;1.00;;;;;;4921518;29;20222;-87
2021/01/04 09:37:11;;;;;;;20.27;11.55;;;2.10;1.00;;;;;;4921008;29;21401;-86
2021/01/04 09:39:43;;;;;;;15.73;11.38;;;2.10;1.00;;;;;;4905166;29;20272;-86
2021/01/04 09:42:17;;;;;;;12.43;10.63;;;2.10;1.00;;;;;;4916507;29;20234;-85
2021/01/04 09:44:50;;;;;;;14.32;11.35;;;2.10;1.00;;;;;;4921407;29;20230;-85
2021/01/04 09:47:29;;;;;;;17.83;11.15;;;2.20;1.00;;;;;;4918118;29;20326;-85
2021/01/04 09:50:09;;;;;;;15.23;12.38;;;2.10;1.00;;;;;;4934686;29;20222;-84
2021/01/04 09:52:41;;;;;;;14.63;11.90;;;2.10;1.00;;;;;;4918298;29;20724;-84
2021/01/04 09:55:12;;;;;;;16.08;11.65;;;2.20;1.00;;;;;;4916179;29;20237;-85
2021/01/04 09:57:44;;;;;;;15.90;11.55;;;2.20;1.00;;;;;;4916679;29;20230;-85
2021/01/04 10:00:19;;;;;;;18.27;12.75;;;2.20;1.00;;;;;;4917538;29;20226;-83
2021/01/04 10:02:49;;;;;;;13.50;10.30;;;2.20;1.00;;;;;;4918599;29;20241;-85
2021/01/04 10:05:18;;;;;;;16.88;12.30;;;2.20;1.00;;;;;;4918714;29;20256;-80
2021/01/04 10:07:45;;;;;;;15.57;10.40;;;2.20;1.00;;;;;;4920288;29;20230;-84
2021/01/04 10:10:15;;;;;;;16.27;11.25;;;2.20;1.00;;;;;;4921008;29;20218;-82
2021/01/04 10:12:41;;;;;;;17.17;12.02;;;2.20;1.00;;;;;;4915847;29;20374;-84
2021/01/04 10:15:16;;;;;;;15.55;12.30;;;2.20;1.00;;;;;;4918057;29;20278;-81
2021/01/04 10:17:44;;;;;;;17.85;12.57;;;2.20;1.00;;;;;;4923433;29;20269;-85
2021/01/04 10:20:31;;;;;;;17.83;13.38;;;2.20;1.00;;;;;;4920168;29;20222;-85
2021/01/04 10:23:00;;;;;;;18.00;12.75;;;2.20;1.00;;;;;;4922289;29;20259;-82
2021/01/04 10:25:35;;;;;;;14.40;11.93;;;2.20;1.00;;;;;;4930748;29;20326;-81
2021/01/04 10:28:02;;;;;;;15.85;12.60;;;2.20;1.00;;;;;;4925559;29;20256;-83
2021/01/04 10:30:30;;;;;;;15.15;11.98;;;2.20;1.00;;;;;;4921603;29;20230;-83
2021/01/04 10:33:09;;;;;;;15.68;11.70;;;2.20;1.00;;;;;;4913935;29;21095;-82
2021/01/04 10:35:36;;;;;;;17.75;12.80;;;2.20;1.00;;;;;;4918380;29;20226;-81
2021/01/04 10:50:04;;;;;;;19.25;13.73;;;2.40;1.00;;;;;;4889390;29;20231;-81
2021/01/04 10:52:31;;;;;;;19.30;13.20;;;2.50;1.00;;;;;;4900925;29;20261;-81
2021/01/04 10:54:57;;;;;;;20.75;12.95;;;2.60;1.00;;;;;;4923766;29;20234;-82
2021/01/04 10:57:30;;;;;;;17.02;11.75;;;2.50;1.00;;;;;;4924571;29;20298;-82
2021/01/04 11:00:03;;;;;;;16.80;12.43;;;2.50;1.00;;;;;;4913337;29;20238;-82
2021/01/04 11:02:38;;;;;;;23.40;13.50;;;2.50;1.00;;;;;;4916733;29;20331;-83
2021/01/04 11:05:06;;;;;;;18.45;14.35;;;2.50;1.00;;;;;;4915385;29;20247;-81
2021/01/04 11:07:33;;;;;;;19.30;13.70;;;2.50;1.00;;;;;;4916426;29;20237;-82
2021/01/04 11:10:11;;;;;;;16.90;12.40;;;2.50;1.00;;;;;;4915174;29;20318;-81
2021/01/04 11:12:47;;;;;;;14.93;11.48;;;2.50;1.00;;;;;;4929823;29;20217;-81
2021/01/04 11:15:24;;;;;;;17.80;12.63;;;2.50;1.00;;;;;;4935789;28;20230;-79
2021/01/04 11:18:02;;;;;;;19.00;12.40;;;2.50;1.00;;;;;;4934079;28;20239;-80
2021/01/04 11:20:28;;;;;;;16.45;13.52;;;2.60;1.00;;;;;;4939199;28;20212;-81
2021/01/04 11:23:05;;;;;;;17.83;14.32;;;2.60;1.00;;;;;;4939365;28;20218;-80
2021/01/04 11:25:33;;;;;;;22.95;16.88;;;2.60;1.00;;;;;;4921319;29;20253;-84
2021/01/04 11:28:09;;;;;;;18.77;14.80;;;2.60;1.00;;;;;;4916119;29;20234;-82
2021/01/04 11:30:36;;;;;;;16.67;13.23;;;2.70;1.00;;;;;;4932116;29;20293;-83
2021/01/04 11:33:03;;;;;;;18.70;14.27;;;2.70;1.00;;;;;;4924004;29;20284;-83
2021/01/04 11:35:30;;;;;;;17.42;13.68;;;2.70;1.00;;;;;;4914329;29;20280;-82
2021/01/04 11:37:57;;;;;;;20.00;13.52;;;2.70;1.00;;;;;;4915029;29;20316;-83
2021/01/04 11:40:27;;;;;;;19.20;13.52;;;2.60;1.00;;;;;;4917882;29;20230;-82
2021/01/04 11:42:53;;;;;;;16.20;12.63;;;2.60;1.00;;;;;;4920068;29;20230;-82
2021/01/04 11:45:22;;;;;;;18.33;13.45;;;2.60;1.00;;;;;;4918225;29;20253;-83
2021/01/04 11:47:52;;;;;;;16.35;13.70;;;2.60;1.00;;;;;;4918301;29;20238;-83
2021/01/04 11:50:28;;;;;;;19.38;13.38;;;2.50;1.00;;;;;;4910715;29;20230;-83
2021/01/04 11:53:25;;;;;;;19.17;13.48;;;2.50;1.00;;;;;;4923986;29;20796;-84
2021/01/04 11:56:14;;;;;;;23.23;14.27;;;2.50;1.00;;;;;;4893405;29;20307;-83
2021/01/04 11:58:57;;;;;;;19.77;12.88;;;2.50;1.00;;;;;;4913882;29;20222;-81
2021/01/04 12:01:45;;;;;;;18.83;13.57;;;2.50;1.00;;;;;;4918717;29;20237;-82
2021/01/04 12:04:45;;;;;;;25.52;15.23;;;2.40;1.00;;;;;;4921807;29;20320;-83
2021/01/04 12:07:21;;;;;;;20.23;14.30;;;2.30;1.00;;;;;;4932889;28;20222;-83
2021/01/04 12:09:53;;;;;;;18.10;13.77;;;2.40;1.00;;;;;;4913327;29;20230;-82
2021/01/04 12:12:27;;;;;;;18.58;13.52;;;2.40;1.00;;;;;;4914786;29;20234;-83
2021/01/04 12:14:57;;;;;;;26.00;14.70;;;2.40;1.00;;;;;;4921233;29;20225;-83
2021/01/04 12:17:36;;;;;;;21.63;16.02;;;2.40;1.00;;;;;;4921082;29;20271;-82
2021/01/04 12:20:08;;;;;;;19.38;13.60;;;2.40;1.00;;;;;;4917789;29;20272;-81
2021/01/04 12:22:41;;;;;;;21.45;14.10;;;2.40;1.00;;;;;;4915455;29;20370;-80
2021/01/04 12:25:11;;;;;;;19.23;13.75;;;2.40;1.00;;;;;;4916009;29;20233;-80
2021/01/04 12:28:00;;;;;;;21.67;13.93;;;2.40;1.00;;;;;;4916446;29;20872;-81
2021/01/04 12:36:58;;;;;;;18.73;13.13;;;2.20;1.00;;;;;;4920726;29;20241;-80
2021/01/04 12:39:27;;;;;;;18.92;13.93;;;2.20;1.00;;;;;;4915612;29;20210;-80
2021/01/04 12:42:13;;;;;;;17.48;13.60;;;2.20;1.00;;;;;;4938375;29;20234;-81
2021/01/04 12:45:07;;;;;;;17.98;13.27;;;2.30;1.00;;;;;;4930482;29;20241;-81
2021/01/04 12:47:41;;;;;;;25.70;14.48;;;2.20;1.00;;;;;;4934537;29;20344;-79
2021/01/04 12:50:12;;;;;;;20.55;15.77;;;2.20;1.00;;;;;;4934902;28;20226;-80
2021/01/04 12:52:38;;;;;;;27.13;17.15;;;2.20;1.00;;;;;;4933721;29;20238;-81
2021/01/04 12:55:06;;;;;;;24.83;15.35;;;2.20;1.00;;;;;;4919904;29;20235;-81
2021/01/04 12:57:32;;;;;;;23.02;15.82;;;2.20;1.00;;;;;;4920203;29;20223;-81
2021/01/04 13:00:00;;;;;;;18.55;14.88;;;2.20;1.00;;;;;;4927170;29;21023;-81
2021/01/04 13:02:27;;;;;;;21.35;14.43;;;2.20;1.00;;;;;;4921782;29;20223;-81
2021/01/04 13:04:53;;;;;;;20.23;14.45;;;2.20;1.00;;;;;;4922393;29;20768;-81
2021/01/04 13:07:19;;;;;;;25.55;15.40;;;2.20;1.00;;;;;;4920817;29;20240;-83
2021/01/04 13:09:46;;;;;;;19.33;14.65;;;2.30;1.00;;;;;;4918173;29;20225;-84
2021/01/04 13:12:13;;;;;;;21.73;15.13;;;2.30;1.00;;;;;;4922309;28;20219;-83
2021/01/04 13:14:39;;;;;;;20.55;14.77;;;2.30;1.00;;;;;;4931487;29;20230;-82
2021/01/04 13:17:06;;;;;;;23.23;17.25;;;2.30;1.00;;;;;;4924460;29;21112;-82
2021/01/04 13:19:33;;;;;;;27.60;16.60;;;2.30;1.00;;;;;;4924968;29;20711;-83
2021/01/04 13:22:01;;;;;;;23.00;16.35;;;2.30;1.00;;;;;;4929430;29;20283;-81
2021/01/04 13:24:28;;;;;;;23.55;16.67;;;2.30;1.00;;;;;;4924794;29;20235;-83
2021/01/04 13:26:59;;;;;;;26.05;15.35;;;2.30;1.00;;;;;;4924170;29;20322;-83
2021/01/04 13:29:29;;;;;;;23.42;16.20;;;2.30;1.00;;;;;;4914078;29;20331;-81
2021/01/04 13:32:00;;;;;;;21.80;15.77;;;2.30;1.00;;;;;;4923588;29;20302;-82
2021/01/04 13:34:29;;;;;;;22.20;15.30;;;2.30;1.00;;;;;;4920207;29;20234;-83
2021/01/04 13:36:55;;;;;;;28.48;16.50;;;2.30;1.00;;;;;;4913525;29;20504;-82
2021/01/04 13:39:24;;;;;;;26.13;18.35;;;2.30;1.00;;;;;;4914944;29;20230;-82
2021/01/04 13:41:52;;;;;;;21.80;15.07;;;2.20;1.00;;;;;;4917737;29;20359;-82
2021/01/04 13:44:19;;;;;;;22.77;15.23;;;2.30;1.00;;;;;;4918224;29;20267;-82
2021/01/04 13:47:36;;;;;;;23.77;17.40;;;2.30;1.00;;;;;;4920303;29;20238;-81
2021/01/04 13:50:04;;;;;;;22.13;16.13;;;2.30;1.00;;;;;;4915215;29;20977;-82
2021/01/04 13:52:30;;;;;;;21.38;17.02;;;2.30;1.00;;;;;;4914540;29;20234;-82
2021/01/04 13:54:57;;;;;;;26.73;17.48;;;2.30;1.00;;;;;;4920584;29;20254;-81
2021/01/04 13:57:25;;;;;;;35.42;25.98;;;2.40;1.00;;;;;;4920751;29;20243;-81
2021/01/04 13:59:51;;;;;;;27.83;19.90;;;2.40;1.00;;;;;;4924726;29;20245;-82
2021/01/04 14:02:18;;;;;;;29.83;23.38;;;2.40;1.00;;;;;;4923859;29;20233;-82
2021/01/04 14:04:47;;;;;;;25.55;19.00;;;2.40;1.00;;;;;;4920552;29;20231;-84
2021/01/04 14:07:16;;;;;;;24.15;17.40;;;2.50;1.00;;;;;;4917990;29;20237;-83
2021/01/04 14:09:47;;;;;;;20.73;15.88;;;2.50;1.00;;;;;;4912554;29;20223;-82
2021/01/04 14:12:13;;;;;;;20.95;16.92;;;2.50;1.00;;;;;;4915233;29;20721;-81
2021/01/04 14:15:33;;;;;;;22.10;16.95;;;2.50;1.00;;;;;;4918455;29;20223;-82
2021/01/04 14:17:59;;;;;;;18.80;14.25;;;2.60;1.00;;;;;;4915532;29;20245;-84
2021/01/04 14:20:40;;;;;;;20.73;13.40;;;2.60;1.00;;;;;;4918587;29;20277;-86
2021/01/04 14:23:07;;;;;;;18.73;13.40;;;2.60;1.00;;;;;;4918490;29;20273;-86
2021/01/04 14:25:33;;;;;;;16.65;13.48;;;2.70;1.00;;;;;;4917887;29;20249;-86
2021/01/04 14:28:01;;;;;;;15.07;12.70;;;2.60;1.00;;;;;;4914632;29;20231;-85
2021/01/04 14:30:28;;;;;;;16.63;13.63;;;2.60;1.00;;;;;;4919349;29;20243;-86
2021/01/04 14:32:55;;;;;;;17.20;12.82;;;2.60;1.00;;;;;;4916127;29;22626;-85
2021/01/04 14:35:21;;;;;;;17.85;13.60;;;2.60;1.00;;;;;;4919541;29;20733;-86
2021/01/04 14:37:48;;;;;;;16.33;13.32;;;2.60;1.00;;;;;;4918709;29;20225;-87
2021/01/04 14:40:16;;;;;;;15.82;12.63;;;2.60;1.00;;;;;;4916290;29;20278;-86
2021/01/04 14:42:42;;;;;;;18.40;12.80;;;2.60;1.00;;;;;;4920160;29;20226;-86
2021/01/04 14:45:10;;;;;;;16.90;12.80;;;2.60;1.00;;;;;;4921174;29;20234;-86
2021/01/04 14:47:37;;;;;;;17.95;13.30;;;2.60;1.00;;;;;;4920118;29;20305;-86
2021/01/04 14:50:04;;;;;;;20.15;13.43;;;2.50;1.00;;;;;;4918200;29;20229;-85
2021/01/04 14:52:31;;;;;;;18.83;14.38;;;2.50;1.00;;;;;;4929176;29;20282;-85
2021/01/04 14:54:57;;;;;;;28.52;14.65;;;2.50;1.00;;;;;;4917873;29;20249;-86
2021/01/04 14:57:25;;;;;;;20.10;14.40;;;2.50;1.00;;;;;;4921174;29;20261;-86
2021/01/04 14:59:51;;;;;;;16.42;13.13;;;2.50;1.00;;;;;;4924526;29;20293;-86
2021/01/04 15:02:18;;;;;;;17.02;12.25;;;2.40;1.00;;;;;;4923144;29;20233;-87
2021/01/04 15:04:45;;;;;;;16.13;13.38;;;2.40;1.00;;;;;;4924326;29;20257;-86
2021/01/04 15:07:12;;;;;;;18.65;13.93;;;2.40;1.00;;;;;;4922587;29;20222;-86
2021/01/04 15:09:39;;;;;;;15.80;13.15;;;2.40;1.00;;;;;;4918418;29;20222;-86
2021/01/04 15:12:07;;;;;;;22.55;13.82;;;2.40;1.00;;;;;;4922834;29;20229;-86
2021/01/04 15:14:34;;;;;;;18.20;13.35;;;2.40;1.00;;;;;;4921017;29;20242;-86
2021/01/04 15:17:01;;;;;;;14.32;11.20;;;2.40;1.00;;;;;;4920716;29;20238;-86
2021/01/04 15:19:27;;;;;;;20.75;15.80;;;2.40;1.00;;;;;;4917518;29;20230;-86
2021/01/04 15:21:54;;;;;;;22.08;16.65;;;2.40;1.00;;;;;;4921756;29;20709;-86